Terminal Aerodrome Forecast
Issued by NWS

Home | Current Version | Previous Version | Text Only | Print | Product List | Glossary On
Versions: 1 2 3 4 5 6 7 8 9 10 11 12 13 14 15 16 17
000
FTUS41 KCLE 011100
TAFFDY
TAF
KFDY 011138Z 0112/0212 01003KT P6SM SCT003 BKN035
      TEMPO 0112/0113 3SM BR
     FM011400 04005KT P6SM BKN015
     FM011600 07005KT P6SM BKN020
     FM011800 09005KT P6SM SCT035
     FM012200 11005KT P6SM SKC=

USA.gov is the U.S. government's official web portal to all federal, state and local government web resources and services.